createdAt,value
2018-09-15T00:00:05.353Z,90.40
2018-09-15T00:02:39.841Z,90.40
2018-09-15T00:05:18.272Z,90.40
2018-09-15T00:07:53.001Z,90.40
2018-09-15T00:10:27.785Z,90.40
2018-09-15T00:13:03.854Z,90.40
2018-09-15T00:15:38.355Z,90.30
2018-09-15T00:18:14.599Z,90.30
2018-09-15T00:20:48.861Z,90.20
2018-09-15T00:23:23.420Z,90.10
2018-09-15T00:25:58.221Z,90.10
2018-09-15T00:28:33.049Z,90.10
2018-09-15T00:31:07.882Z,90.00
2018-09-15T00:33:42.953Z,90.00
2018-09-15T00:36:18.174Z,90.00
2018-09-15T00:38:52.400Z,90.00
2018-09-15T00:41:27.605Z,90.00
2018-09-15T00:44:02.312Z,90.10
2018-09-15T00:46:37.132Z,90.00
2018-09-15T00:49:11.807Z,90.30
2018-09-15T00:51:46.247Z,89.90
2018-09-15T00:54:20.886Z,90.00
2018-09-15T00:56:55.972Z,89.90
2018-09-15T00:59:30.592Z,90.00
2018-09-15T01:02:05.235Z,90.00
2018-09-15T01:04:40.362Z,89.90
2018-09-15T01:07:15.018Z,89.80
2018-09-15T01:09:49.688Z,89.60
2018-09-15T01:12:25.341Z,89.60
2018-09-15T01:15:00.037Z,89.60
2018-09-15T01:17:34.783Z,89.80
2018-09-15T01:20:09.564Z,89.70
2018-09-15T01:22:44.207Z,89.70
2018-09-15T01:25:19.093Z,89.70
2018-09-15T01:27:53.472Z,89.70
2018-09-15T01:30:28.158Z,89.70
2018-09-15T01:33:03.175Z,89.80
2018-09-15T01:35:37.580Z,89.80
2018-09-15T01:38:12.354Z,90.10
2018-09-15T01:40:47.067Z,89.60
2018-09-15T01:43:21.830Z,89.60
2018-09-15T01:45:56.546Z,89.70
2018-09-15T01:48:31.299Z,89.90
2018-09-15T01:51:06.193Z,90.00
2018-09-15T01:53:41.082Z,90.00
2018-09-15T01:56:15.596Z,90.00
2018-09-15T01:58:50.303Z,90.10
2018-09-15T02:01:25.001Z,90.10
2018-09-15T02:03:59.692Z,90.10
2018-09-15T02:06:34.340Z,90.10
2018-09-15T02:09:11.687Z,90.10
2018-09-15T02:11:46.764Z,90.20
2018-09-15T02:14:21.474Z,90.20
2018-09-15T02:16:56.238Z,90.20
2018-09-15T02:19:30.745Z,90.20
2018-09-15T02:22:05.920Z,90.20
2018-09-15T02:24:41.160Z,90.20
2018-09-15T02:27:16.285Z,90.30
2018-09-15T02:29:51.448Z,90.30
2018-09-15T02:32:26.693Z,90.40
2018-09-15T02:35:03.223Z,90.40
2018-09-15T02:37:38.057Z,90.40
2018-09-15T02:40:13.020Z,90.40
2018-09-15T02:42:47.421Z,90.40
2018-09-15T02:45:22.448Z,90.40
2018-09-15T02:47:56.980Z,90.30
2018-09-15T02:50:31.631Z,90.30
2018-09-15T02:53:07.043Z,90.30
2018-09-15T02:55:42.104Z,90.30
2018-09-15T02:58:17.136Z,90.30
2018-09-15T03:00:52.340Z,90.30
2018-09-15T03:03:27.329Z,90.30
2018-09-15T03:06:02.113Z,90.30
2018-09-15T03:08:36.575Z,90.40
2018-09-15T03:11:11.352Z,90.30
2018-09-15T03:13:46.096Z,90.30
2018-09-15T03:16:20.883Z,90.30
2018-09-15T03:18:55.816Z,90.30
2018-09-15T03:21:31.217Z,90.40
2018-09-15T03:24:06.090Z,90.40
2018-09-15T03:26:41.505Z,90.40
2018-09-15T03:29:16.565Z,90.20
2018-09-15T03:31:51.214Z,90.50
2018-09-15T03:34:25.784Z,90.60
2018-09-15T03:37:00.557Z,90.60
2018-09-15T03:39:35.389Z,90.60
2018-09-15T03:42:09.904Z,90.70
2018-09-15T03:44:45.256Z,90.70
2018-09-15T03:47:19.889Z,90.60
2018-09-15T03:49:54.289Z,90.70
2018-09-15T03:52:28.640Z,90.80
2018-09-15T03:55:03.537Z,90.70
2018-09-15T03:57:38.264Z,90.60
2018-09-15T04:00:12.888Z,90.70
2018-09-15T04:02:47.624Z,90.70
2018-09-15T04:05:22.405Z,90.80
2018-09-15T04:07:57.075Z,91.30
2018-09-15T04:10:31.800Z,91.10
2018-09-15T04:13:06.644Z,91.10
2018-09-15T04:15:40.879Z,91.10
2018-09-15T04:18:16.568Z,91.10
2018-09-15T04:20:51.180Z,91.10
2018-09-15T04:23:26.763Z,91.20
2018-09-15T04:26:01.675Z,91.30
2018-09-15T04:28:36.098Z,91.40
2018-09-15T04:31:11.052Z,91.50
2018-09-15T04:33:45.190Z,91.60
2018-09-15T04:36:19.756Z,91.70
2018-09-15T04:38:54.381Z,91.70
2018-09-15T04:41:29.033Z,91.80
2018-09-15T04:44:03.801Z,91.70
2018-09-15T04:46:38.490Z,91.70
2018-09-15T04:49:13.215Z,91.70
2018-09-15T04:51:47.945Z,91.60
2018-09-15T04:54:22.652Z,91.60
2018-09-15T04:56:57.592Z,91.60
2018-09-15T04:59:32.264Z,91.70
2018-09-15T05:02:07.121Z,91.70
2018-09-15T05:04:41.325Z,91.70
2018-09-15T05:07:16.876Z,91.70
2018-09-15T05:09:52.020Z,91.80
2018-09-15T05:12:27.982Z,91.70
2018-09-15T05:15:02.630Z,91.70
2018-09-15T05:17:37.220Z,91.70
2018-09-15T05:20:12.272Z,91.70
2018-09-15T05:22:47.101Z,91.60
2018-09-15T05:25:21.624Z,91.80
2018-09-15T05:27:57.419Z,91.50
2018-09-15T05:30:33.084Z,91.40
2018-09-15T05:33:07.748Z,91.50
2018-09-15T05:35:42.425Z,91.50
2018-09-15T05:38:17.272Z,91.50
2018-09-15T05:40:51.996Z,91.50
2018-09-15T05:43:26.653Z,91.50
2018-09-15T05:46:01.505Z,91.50
2018-09-15T05:48:35.960Z,91.50
2018-09-15T05:51:10.584Z,91.60
2018-09-15T05:53:45.289Z,91.60
2018-09-15T05:56:19.847Z,91.40
2018-09-15T05:58:54.741Z,91.30
2018-09-15T06:01:29.517Z,91.10
2018-09-15T06:04:04.141Z,91.10
2018-09-15T06:06:39.002Z,91.00
2018-09-15T06:09:13.350Z,91.00
2018-09-15T06:11:48.212Z,91.10
2018-09-15T06:14:23.070Z,91.40
2018-09-15T06:16:58.015Z,90.90
2018-09-15T06:19:32.868Z,90.60
2018-09-15T06:22:07.465Z,90.30
2018-09-15T06:24:42.224Z,89.80
2018-09-15T06:27:16.955Z,89.20
2018-09-15T06:29:51.852Z,89.00
2018-09-15T06:32:26.696Z,88.70
2018-09-15T06:35:01.337Z,88.50
2018-09-15T06:37:39.270Z,88.30
2018-09-15T06:40:15.148Z,87.80
2018-09-15T06:42:49.938Z,87.40
2018-09-15T06:45:25.476Z,87.10
2018-09-15T06:48:00.169Z,86.70
2018-09-15T06:50:35.106Z,86.40
2018-09-15T06:53:09.900Z,86.30
2018-09-15T06:55:44.669Z,86.30
2018-09-15T06:58:19.229Z,85.90
2018-09-15T07:00:53.993Z,85.70
2018-09-15T07:03:29.178Z,85.40
2018-09-15T07:06:03.801Z,86.10
2018-09-15T07:08:38.252Z,85.20
2018-09-15T07:11:13.081Z,84.90
2018-09-15T07:13:47.964Z,84.70
2018-09-15T07:16:22.877Z,84.50
2018-09-15T07:18:57.604Z,84.00
2018-09-15T07:21:32.035Z,84.10
2018-09-15T07:24:06.740Z,83.80
2018-09-15T07:26:41.393Z,83.60
2018-09-15T07:29:16.233Z,83.60
2018-09-15T07:31:50.884Z,83.60
2018-09-15T07:34:25.386Z,83.60
2018-09-15T07:37:00.383Z,83.60
2018-09-15T07:39:34.668Z,83.50
2018-09-15T07:42:09.514Z,83.60
2018-09-15T07:44:44.346Z,83.60
2018-09-15T07:47:19.641Z,83.60
2018-09-15T07:49:54.093Z,83.60
2018-09-15T07:52:30.903Z,83.60
2018-09-15T07:55:05.829Z,83.20
2018-09-15T07:57:40.316Z,82.50
2018-09-15T08:00:15.366Z,82.90
2018-09-15T08:02:49.629Z,82.30
2018-09-15T08:05:25.756Z,82.10
2018-09-15T08:08:00.234Z,82.10
2018-09-15T08:10:34.988Z,82.30
2018-09-15T08:13:09.647Z,82.30
2018-09-15T08:15:44.509Z,82.30
2018-09-15T08:18:19.051Z,82.30
2018-09-15T08:20:54.267Z,82.20
2018-09-15T08:23:28.609Z,81.80
2018-09-15T08:26:03.461Z,81.60
2018-09-15T08:28:38.063Z,81.40
2018-09-15T08:31:12.755Z,81.50
2018-09-15T08:33:47.558Z,82.00
2018-09-15T08:36:22.353Z,81.80
2018-09-15T08:38:56.741Z,81.80
2018-09-15T08:41:31.374Z,81.80
2018-09-15T08:44:06.842Z,81.40
2018-09-15T08:46:41.796Z,81.20
2018-09-15T08:49:16.390Z,81.00
2018-09-15T08:51:51.388Z,80.40
2018-09-15T08:54:26.277Z,80.00
2018-09-15T08:57:00.526Z,79.80
2018-09-15T08:59:40.233Z,79.70
2018-09-15T09:02:14.743Z,80.30
2018-09-15T09:04:49.406Z,80.10
2018-09-15T09:07:24.168Z,79.50
2018-09-15T09:09:59.305Z,79.80
2018-09-15T09:12:34.101Z,78.90
2018-09-15T09:15:09.116Z,79.60
2018-09-15T09:17:43.489Z,79.60
2018-09-15T09:20:18.197Z,79.60
2018-09-15T09:22:54.748Z,78.50
2018-09-15T09:25:29.886Z,77.10
2018-09-15T09:28:04.408Z,76.10
2018-09-15T09:30:38.963Z,74.00
2018-09-15T09:33:13.715Z,74.20
2018-09-15T09:35:48.358Z,73.70
2018-09-15T09:38:22.829Z,73.90
2018-09-15T09:40:57.340Z,74.60
2018-09-15T09:43:32.197Z,74.50
2018-09-15T09:46:07.236Z,74.50
2018-09-15T09:48:41.350Z,74.60
2018-09-15T09:51:16.048Z,73.60
2018-09-15T09:53:51.332Z,72.60
2018-09-15T09:56:26.364Z,71.00
2018-09-15T09:59:01.576Z,69.40
2018-09-15T10:01:42.844Z,70.20
2018-09-15T10:04:17.683Z,69.40
2018-09-15T10:06:51.926Z,69.90
2018-09-15T10:09:26.620Z,69.90
2018-09-15T10:12:01.372Z,70.60
2018-09-15T10:14:36.148Z,70.80
2018-09-15T10:17:10.815Z,71.70
2018-09-15T10:19:46.264Z,72.40
2018-09-15T10:22:20.901Z,72.10
2018-09-15T10:24:55.821Z,72.90
2018-09-15T10:27:30.140Z,73.30
2018-09-15T10:30:04.936Z,73.30
2018-09-15T10:32:39.582Z,72.30
2018-09-15T10:35:13.969Z,71.40
2018-09-15T10:37:48.697Z,72.40
2018-09-15T10:40:23.401Z,72.30
2018-09-15T10:42:57.849Z,72.30
2018-09-15T10:45:33.181Z,72.30
2018-09-15T10:48:08.200Z,72.10
2018-09-15T10:50:43.806Z,72.30
2018-09-15T10:53:19.049Z,72.70
2018-09-15T10:55:53.864Z,71.80
2018-09-15T10:58:28.040Z,72.20
2018-09-15T11:01:02.788Z,73.20
2018-09-15T11:03:37.653Z,73.40
2018-09-15T11:06:12.665Z,71.90
2018-09-15T11:08:47.409Z,72.00
2018-09-15T11:11:21.556Z,71.20
2018-09-15T11:13:56.500Z,70.80
2018-09-15T11:16:31.223Z,71.00
2018-09-15T11:19:06.148Z,69.60
2018-09-15T11:21:41.658Z,69.50
2018-09-15T11:24:16.926Z,69.70
2018-09-15T11:26:51.461Z,69.60
2018-09-15T11:29:26.163Z,69.70
2018-09-15T11:32:02.861Z,68.90
2018-09-15T11:34:39.326Z,68.80
2018-09-15T11:37:13.878Z,68.10
2018-09-15T11:39:48.438Z,66.70
2018-09-15T11:42:22.817Z,65.70
2018-09-15T11:44:57.516Z,63.90
2018-09-15T11:47:32.010Z,64.20
2018-09-15T11:50:06.863Z,65.10
2018-09-15T11:52:41.508Z,65.20
2018-09-15T11:55:23.362Z,64.90
2018-09-15T11:57:58.261Z,65.80
2018-09-15T12:00:35.074Z,64.90
2018-09-15T12:03:10.277Z,64.30
2018-09-15T12:05:45.164Z,64.80
2018-09-15T12:08:20.104Z,67.30
2018-09-15T12:10:54.248Z,64.80
2018-09-15T12:13:29.207Z,65.30
2018-09-15T12:16:03.698Z,66.30
2018-09-15T12:18:41.245Z,66.60
2018-09-15T12:21:16.298Z,66.50
2018-09-15T12:23:50.417Z,65.80
2018-09-15T12:26:25.180Z,66.10
2018-09-15T12:28:59.799Z,65.00
2018-09-15T12:31:34.539Z,65.60
2018-09-15T12:34:09.304Z,66.40
2018-09-15T12:36:43.920Z,65.20
2018-09-15T12:39:18.760Z,65.50
2018-09-15T12:41:53.408Z,65.20
2018-09-15T12:44:28.159Z,65.60
2018-09-15T12:47:02.822Z,64.60
2018-09-15T12:49:37.464Z,65.20
2018-09-15T12:52:12.217Z,65.00
2018-09-15T12:54:46.832Z,64.30
2018-09-15T12:57:21.580Z,64.70
2018-09-15T12:59:56.212Z,65.80
2018-09-15T13:02:30.804Z,65.60
2018-09-15T13:05:05.517Z,65.40
2018-09-15T13:07:40.569Z,65.00
2018-09-15T13:10:14.809Z,66.30
2018-09-15T13:12:49.168Z,67.20
2018-09-15T13:15:24.414Z,66.10
2018-09-15T13:17:59.149Z,65.50
2018-09-15T13:20:33.580Z,64.40
2018-09-15T13:23:09.314Z,65.10
2018-09-15T13:25:43.901Z,64.90
2018-09-15T13:28:19.253Z,64.70
2018-09-15T13:30:53.735Z,66.20
2018-09-15T13:33:28.328Z,65.10
2018-09-15T13:36:03.236Z,64.80
2018-09-15T13:38:38.006Z,64.10
2018-09-15T13:41:12.834Z,63.30
2018-09-15T13:43:48.108Z,65.10
2018-09-15T13:46:22.874Z,64.60
2018-09-15T13:48:57.354Z,64.20
2018-09-15T13:51:32.104Z,64.20
2018-09-15T13:54:07.002Z,64.80
2018-09-15T13:56:41.372Z,65.10
2018-09-15T13:59:15.997Z,64.80
2018-09-15T14:01:50.735Z,65.60
2018-09-15T14:04:25.113Z,66.00
2018-09-15T14:06:59.947Z,65.70
2018-09-15T14:09:43.287Z,66.00
2018-09-15T14:12:09.149Z,66.50
2018-09-15T14:14:43.780Z,65.70
2018-09-15T14:17:18.300Z,66.10
2018-09-15T14:19:53.174Z,65.30
2018-09-15T14:22:27.825Z,65.10
2018-09-15T14:25:02.433Z,66.10
2018-09-15T14:27:36.952Z,66.80
2018-09-15T14:30:11.788Z,67.40
2018-09-15T14:32:46.380Z,67.30
2018-09-15T14:35:21.367Z,67.70
2018-09-15T14:37:56.604Z,68.00
2018-09-15T14:40:31.692Z,68.00
2018-09-15T14:43:06.855Z,68.20
2018-09-15T14:45:41.061Z,67.80
2018-09-15T14:48:15.761Z,68.00
2018-09-15T14:50:50.760Z,66.90
2018-09-15T14:53:25.005Z,67.70
2018-09-15T14:55:59.656Z,67.10
2018-09-15T14:58:34.376Z,66.60
2018-09-15T15:01:09.569Z,66.40
2018-09-15T15:03:44.055Z,66.70
2018-09-15T15:06:18.728Z,67.00
2018-09-15T15:08:53.288Z,67.30
2018-09-15T15:11:28.068Z,67.00
2018-09-15T15:14:02.831Z,67.20
2018-09-15T15:16:37.664Z,67.90
2018-09-15T15:19:12.788Z,68.10
2018-09-15T15:21:46.976Z,67.50
2018-09-15T15:24:21.587Z,67.80
2018-09-15T15:26:56.395Z,67.70
2018-09-15T15:29:31.168Z,66.30
2018-09-15T15:32:05.884Z,66.90
2018-09-15T15:34:40.319Z,67.80
2018-09-15T15:37:15.261Z,65.50
2018-09-15T15:39:49.910Z,64.40
2018-09-15T15:42:24.640Z,64.90
2018-09-15T15:44:59.217Z,65.50
2018-09-15T15:47:33.768Z,66.30
2018-09-15T15:50:08.704Z,67.00
2018-09-15T15:52:44.168Z,67.30
2018-09-15T15:55:19.055Z,67.70
2018-09-15T15:57:53.755Z,67.90
2018-09-15T16:00:28.389Z,68.00
2018-09-15T16:03:02.801Z,68.00
2018-09-15T16:05:37.489Z,68.10
2018-09-15T16:08:12.402Z,68.30
2018-09-15T16:10:47.423Z,68.40
2018-09-15T16:13:22.197Z,67.80
2018-09-15T16:15:56.913Z,67.70
2018-09-15T16:18:31.577Z,66.90
2018-09-15T16:21:06.234Z,67.20
2018-09-15T16:23:41.062Z,67.30
2018-09-15T16:26:15.961Z,67.70
2018-09-15T16:28:50.663Z,67.60
2018-09-15T16:31:25.439Z,68.10
2018-09-15T16:34:00.276Z,68.20
2018-09-15T16:36:34.782Z,68.60
2018-09-15T16:39:11.233Z,69.10
2018-09-15T16:41:45.365Z,69.50
2018-09-15T16:44:20.016Z,69.00
2018-09-15T16:46:54.695Z,69.90
2018-09-15T16:49:29.923Z,70.70
2018-09-15T16:52:04.424Z,70.50
2018-09-15T16:54:38.953Z,70.80
2018-09-15T16:57:13.778Z,71.20
2018-09-15T16:59:48.526Z,71.60
2018-09-15T17:02:22.980Z,72.70
2018-09-15T17:04:57.817Z,71.90
2018-09-15T17:07:32.861Z,72.20
2018-09-15T17:10:07.319Z,72.30
2018-09-15T17:12:42.131Z,71.80
2018-09-15T17:15:16.864Z,72.20
2018-09-15T17:17:51.472Z,72.10
2018-09-15T17:20:26.122Z,73.20
2018-09-15T17:23:00.945Z,73.40
2018-09-15T17:25:35.943Z,73.40
2018-09-15T17:28:10.604Z,73.70
2018-09-15T17:30:45.204Z,73.60
2018-09-15T17:33:19.864Z,73.50
2018-09-15T17:35:54.531Z,73.30
2018-09-15T17:38:29.193Z,73.30
2018-09-15T17:41:03.935Z,71.80
2018-09-15T17:43:38.712Z,71.70
2018-09-15T17:46:13.510Z,71.80
2018-09-15T17:48:47.879Z,70.70
2018-09-15T17:51:22.689Z,70.50
2018-09-15T17:53:57.578Z,67.10
2018-09-15T17:56:32.614Z,68.40
2018-09-15T17:59:06.966Z,68.30
2018-09-15T18:01:41.955Z,68.30
2018-09-15T18:04:16.273Z,64.60
2018-09-15T18:06:51.366Z,65.30
2018-09-15T18:09:26.027Z,66.00
2018-09-15T18:12:01.187Z,66.90
2018-09-15T18:14:35.614Z,67.40
2018-09-15T18:17:10.293Z,67.70
2018-09-15T18:19:45.261Z,67.80
2018-09-15T18:22:19.684Z,67.20
2018-09-15T18:24:54.600Z,65.50
2018-09-15T18:27:29.357Z,66.80
2018-09-15T18:30:04.191Z,66.70
2018-09-15T18:32:39.236Z,67.40
2018-09-15T18:35:13.891Z,68.30
2018-09-15T18:37:49.574Z,68.50
2018-09-15T18:40:24.588Z,68.90
2018-09-15T18:42:58.881Z,69.30
2018-09-15T18:45:33.802Z,69.40
2018-09-15T18:48:08.955Z,69.60
2018-09-15T18:50:44.646Z,69.90
2018-09-15T18:53:19.774Z,70.30
2018-09-15T18:55:54.365Z,70.30
2018-09-15T18:58:29.252Z,70.70
2018-09-15T19:01:04.047Z,70.70
2018-09-15T19:03:39.424Z,71.30
2018-09-15T19:06:13.882Z,71.60
2018-09-15T19:08:49.599Z,72.00
2018-09-15T19:11:24.402Z,72.40
2018-09-15T19:13:59.520Z,72.70
2018-09-15T19:16:34.827Z,73.30
2018-09-15T19:19:09.320Z,73.70
2018-09-15T19:21:44.221Z,73.80
2018-09-15T19:24:18.793Z,74.30
2018-09-15T19:26:53.697Z,74.60
2018-09-15T19:29:28.176Z,74.60
2018-09-15T19:32:02.979Z,75.10
2018-09-15T19:34:37.656Z,75.00
2018-09-15T19:37:12.363Z,75.00
2018-09-15T19:39:47.110Z,74.80
2018-09-15T19:42:21.711Z,74.70
2018-09-15T19:44:56.290Z,74.70
2018-09-15T19:47:31.012Z,74.70
2018-09-15T19:50:05.569Z,75.00
2018-09-15T19:52:40.073Z,75.20
2018-09-15T19:55:14.565Z,75.30
2018-09-15T19:57:49.346Z,76.20
2018-09-15T20:00:24.190Z,76.10
2018-09-15T20:02:59.968Z,76.40
2018-09-15T20:05:34.279Z,77.00
2018-09-15T20:08:08.987Z,77.30
2018-09-15T20:10:44.543Z,77.70
2018-09-15T20:13:19.380Z,78.10
2018-09-15T20:15:52.131Z,79.00
2018-09-15T20:18:25.496Z,79.40
2018-09-15T20:20:59.027Z,78.70
2018-09-15T20:23:34.683Z,79.10
2018-09-15T20:26:09.965Z,79.70
2018-09-15T20:28:44.630Z,79.50
2018-09-15T20:31:19.286Z,79.70
2018-09-15T20:33:54.138Z,79.90
2018-09-15T20:36:28.998Z,80.00
2018-09-15T20:39:07.600Z,80.40
2018-09-15T20:41:42.573Z,80.90
2018-09-15T20:44:17.264Z,80.80
2018-09-15T20:46:52.010Z,80.80
2018-09-15T20:49:26.581Z,81.10
2018-09-15T20:52:02.160Z,81.40
2018-09-15T20:54:37.515Z,81.50
2018-09-15T20:57:11.906Z,81.70
2018-09-15T20:59:46.505Z,81.80
2018-09-15T21:02:21.064Z,81.80
2018-09-15T21:04:56.881Z,82.20
2018-09-15T21:07:31.437Z,82.20
2018-09-15T21:10:06.674Z,82.40
2018-09-15T21:12:41.640Z,82.50
2018-09-15T21:15:16.613Z,82.50
2018-09-15T21:17:51.080Z,82.60
2018-09-15T21:20:25.660Z,82.80
2018-09-15T21:23:00.320Z,82.80
2018-09-15T21:25:34.925Z,83.00
2018-09-15T21:28:09.756Z,83.10
2018-09-15T21:30:44.560Z,83.10
2018-09-15T21:33:19.214Z,83.30
2018-09-15T21:35:53.948Z,83.50
2018-09-15T21:38:28.876Z,83.70
2018-09-15T21:41:03.202Z,83.80
2018-09-15T21:43:37.926Z,84.00
2018-09-15T21:46:12.783Z,84.00
2018-09-15T21:48:48.332Z,84.10
2018-09-15T21:51:23.794Z,84.80
2018-09-15T21:53:58.928Z,84.10
2018-09-15T21:56:33.783Z,84.20
2018-09-15T21:59:08.372Z,84.40
2018-09-15T22:01:43.013Z,84.30
2018-09-15T22:04:19.750Z,84.50
2018-09-15T22:06:54.331Z,84.50
2018-09-15T22:09:29.046Z,84.60
2018-09-15T22:12:03.659Z,84.70
2018-09-15T22:14:38.705Z,84.80
2018-09-15T22:17:13.748Z,84.90
2018-09-15T22:19:49.224Z,85.10
2018-09-15T22:22:24.264Z,85.10
2018-09-15T22:24:58.644Z,85.20
2018-09-15T22:27:33.324Z,85.10
2018-09-15T22:30:08.553Z,85.30
2018-09-15T22:32:44.184Z,85.30
2018-09-15T22:35:19.761Z,85.40
2018-09-15T22:37:54.836Z,85.90
2018-09-15T22:40:29.522Z,85.30
2018-09-15T22:43:04.144Z,85.30
2018-09-15T22:45:38.927Z,85.30
2018-09-15T22:48:13.715Z,85.30
2018-09-15T22:50:48.912Z,85.30
2018-09-15T22:53:23.994Z,85.30
2018-09-15T22:55:58.543Z,85.30
2018-09-15T22:58:33.376Z,85.40
2018-09-15T23:01:08.049Z,85.70
2018-09-15T23:03:42.604Z,85.90
2018-09-15T23:06:17.444Z,86.00
2018-09-15T23:08:52.954Z,86.00
2018-09-15T23:11:27.743Z,86.10
2018-09-15T23:14:03.104Z,86.40
2018-09-15T23:16:37.280Z,86.60
2018-09-15T23:19:12.519Z,86.50
2018-09-15T23:21:46.740Z,86.60
2018-09-15T23:24:23.016Z,86.50
2018-09-15T23:26:58.561Z,86.50
2018-09-15T23:29:32.777Z,86.60
2018-09-15T23:32:07.401Z,86.50
2018-09-15T23:34:42.990Z,86.40
2018-09-15T23:37:18.216Z,87.10
2018-09-15T23:39:52.461Z,86.40
2018-09-15T23:42:27.256Z,86.40
2018-09-15T23:45:02.179Z,86.40
2018-09-15T23:47:36.336Z,86.20
2018-09-15T23:50:10.913Z,85.80
2018-09-15T23:52:45.581Z,86.40
2018-09-15T23:55:21.063Z,86.30
2018-09-15T23:57:55.958Z,86.30
